sensor_id;sensor_type;location;lat;lon;timestamp;temperature;humidity
33988;DHT22;37428;53.580;-1.666;2023-01-29T00:00:49;5.60;96.80
33988;DHT22;37428;53.580;-1.666;2023-01-29T00:03:52;5.60;97.10
33988;DHT22;37428;53.580;-1.666;2023-01-29T00:06:54;5.60;97.40
33988;DHT22;37428;53.580;-1.666;2023-01-29T00:09:57;5.60;97.40
33988;DHT22;37428;53.580;-1.666;2023-01-29T00:12:59;5.60;97.50
33988;DHT22;37428;53.580;-1.666;2023-01-29T00:16:02;5.60;97.70
33988;DHT22;37428;53.580;-1.666;2023-01-29T00:19:04;5.50;97.70
33988;DHT22;37428;53.580;-1.666;2023-01-29T00:22:06;5.50;97.80
33988;DHT22;37428;53.580;-1.666;2023-01-29T00:25:10;5.60;97.70
33988;DHT22;37428;53.580;-1.666;2023-01-29T00:28:12;5.60;97.90
33988;DHT22;37428;53.580;-1.666;2023-01-29T00:31:18;5.60;97.40
33988;DHT22;37428;53.580;-1.666;2023-01-29T00:34:21;5.60;97.40
33988;DHT22;37428;53.580;-1.666;2023-01-29T00:37:23;5.60;97.50
33988;DHT22;37428;53.580;-1.666;2023-01-29T00:40:27;5.50;97.80
33988;DHT22;37428;53.580;-1.666;2023-01-29T00:43:49;5.50;98.40
33988;DHT22;37428;53.580;-1.666;2023-01-29T00:47:08;5.40;98.40
33988;DHT22;37428;53.580;-1.666;2023-01-29T00:50:30;5.40;98.70
33988;DHT22;37428;53.580;-1.666;2023-01-29T00:53:33;5.40;98.50
33988;DHT22;37428;53.580;-1.666;2023-01-29T00:56:37;5.40;98.40
33988;DHT22;37428;53.580;-1.666;2023-01-29T00:59:39;5.40;98.40
33988;DHT22;37428;53.580;-1.666;2023-01-29T01:02:41;5.50;98.30
33988;DHT22;37428;53.580;-1.666;2023-01-29T01:06:05;5.50;97.80
33988;DHT22;37428;53.580;-1.666;2023-01-29T01:09:08;5.50;97.40
33988;DHT22;37428;53.580;-1.666;2023-01-29T01:12:29;5.50;97.40
33988;DHT22;37428;53.580;-1.666;2023-01-29T01:15:34;5.50;96.90
33988;DHT22;37428;53.580;-1.666;2023-01-29T01:18:37;5.50;96.80
33988;DHT22;37428;53.580;-1.666;2023-01-29T01:21:40;5.50;96.30
33988;DHT22;37428;53.580;-1.666;2023-01-29T01:24:45;5.60;96.50
33988;DHT22;37428;53.580;-1.666;2023-01-29T01:27:51;5.60;96.40
33988;DHT22;37428;53.580;-1.666;2023-01-29T01:30:53;5.60;96.60
33988;DHT22;37428;53.580;-1.666;2023-01-29T01:33:55;5.60;96.40
33988;DHT22;37428;53.580;-1.666;2023-01-29T01:36:57;5.60;96.40
33988;DHT22;37428;53.580;-1.666;2023-01-29T01:39:59;5.50;96.80
33988;DHT22;37428;53.580;-1.666;2023-01-29T01:43:05;5.50;97.20
33988;DHT22;37428;53.580;-1.666;2023-01-29T01:46:07;5.50;97.70
33988;DHT22;37428;53.580;-1.666;2023-01-29T01:49:13;5.50;97.60
33988;DHT22;37428;53.580;-1.666;2023-01-29T01:52:18;5.40;97.50
33988;DHT22;37428;53.580;-1.666;2023-01-29T01:55:23;5.40;97.50
33988;DHT22;37428;53.580;-1.666;2023-01-29T01:58:33;5.40;97.20
33988;DHT22;37428;53.580;-1.666;2023-01-29T02:01:37;5.50;97.30
33988;DHT22;37428;53.580;-1.666;2023-01-29T02:04:45;5.50;97.20
33988;DHT22;37428;53.580;-1.666;2023-01-29T02:08:05;5.50;97.00
33988;DHT22;37428;53.580;-1.666;2023-01-29T02:11:25;5.40;96.90
33988;DHT22;37428;53.580;-1.666;2023-01-29T02:14:29;5.40;97.00
33988;DHT22;37428;53.580;-1.666;2023-01-29T02:17:32;5.40;97.10
33988;DHT22;37428;53.580;-1.666;2023-01-29T02:20:34;5.40;96.90
33988;DHT22;37428;53.580;-1.666;2023-01-29T02:23:59;5.40;97.20
33988;DHT22;37428;53.580;-1.666;2023-01-29T02:27:10;5.40;97.10
33988;DHT22;37428;53.580;-1.666;2023-01-29T02:30:17;5.40;97.30
33988;DHT22;37428;53.580;-1.666;2023-01-29T02:33:29;5.40;97.60
33988;DHT22;37428;53.580;-1.666;2023-01-29T02:36:38;5.40;97.20
33988;DHT22;37428;53.580;-1.666;2023-01-29T02:39:47;5.30;97.10
33988;DHT22;37428;53.580;-1.666;2023-01-29T02:42:56;5.30;96.80
33988;DHT22;37428;53.580;-1.666;2023-01-29T02:46:07;5.30;96.60
33988;DHT22;37428;53.580;-1.666;2023-01-29T02:49:19;5.30;96.50
33988;DHT22;37428;53.580;-1.666;2023-01-29T02:52:24;5.20;96.00
33988;DHT22;37428;53.580;-1.666;2023-01-29T02:55:33;5.20;96.30
33988;DHT22;37428;53.580;-1.666;2023-01-29T02:58:40;5.20;96.50
33988;DHT22;37428;53.580;-1.666;2023-01-29T03:01:47;5.10;96.60
33988;DHT22;37428;53.580;-1.666;2023-01-29T03:04:55;5.10;96.60
33988;DHT22;37428;53.580;-1.666;2023-01-29T03:08:03;5.10;96.90
33988;DHT22;37428;53.580;-1.666;2023-01-29T03:11:08;5.10;97.20
33988;DHT22;37428;53.580;-1.666;2023-01-29T03:14:17;5.00;97.10
33988;DHT22;37428;53.580;-1.666;2023-01-29T03:17:26;5.00;97.10
33988;DHT22;37428;53.580;-1.666;2023-01-29T03:20:35;5.00;96.60
33988;DHT22;37428;53.580;-1.666;2023-01-29T03:23:39;5.00;96.00
33988;DHT22;37428;53.580;-1.666;2023-01-29T03:27:02;5.00;95.50
33988;DHT22;37428;53.580;-1.666;2023-01-29T03:30:25;5.00;95.10
33988;DHT22;37428;53.580;-1.666;2023-01-29T03:33:50;5.10;95.00
33988;DHT22;37428;53.580;-1.666;2023-01-29T03:36:56;5.10;94.20
33988;DHT22;37428;53.580;-1.666;2023-01-29T03:39:59;5.10;93.70
33988;DHT22;37428;53.580;-1.666;2023-01-29T03:43:08;5.10;93.10
33988;DHT22;37428;53.580;-1.666;2023-01-29T03:46:19;5.10;92.50
33988;DHT22;37428;53.580;-1.666;2023-01-29T03:49:31;5.10;92.10
33988;DHT22;37428;53.580;-1.666;2023-01-29T03:52:43;5.10;92.20
33988;DHT22;37428;53.580;-1.666;2023-01-29T03:55:53;5.00;91.90
33988;DHT22;37428;53.580;-1.666;2023-01-29T03:59:03;5.00;91.50
33988;DHT22;37428;53.580;-1.666;2023-01-29T04:02:14;5.00;91.30
33988;DHT22;37428;53.580;-1.666;2023-01-29T04:05:21;5.00;91.00
33988;DHT22;37428;53.580;-1.666;2023-01-29T04:08:27;5.00;91.20
33988;DHT22;37428;53.580;-1.666;2023-01-29T04:11:35;5.00;91.10
33988;DHT22;37428;53.580;-1.666;2023-01-29T04:14:39;5.00;91.40
33988;DHT22;37428;53.580;-1.666;2023-01-29T04:17:44;4.90;91.10
33988;DHT22;37428;53.580;-1.666;2023-01-29T04:20:51;5.00;91.60
33988;DHT22;37428;53.580;-1.666;2023-01-29T04:23:53;5.00;91.20
33988;DHT22;37428;53.580;-1.666;2023-01-29T04:27:04;5.00;91.30
33988;DHT22;37428;53.580;-1.666;2023-01-29T04:30:20;5.00;91.50
33988;DHT22;37428;53.580;-1.666;2023-01-29T04:33:30;5.00;91.30
33988;DHT22;37428;53.580;-1.666;2023-01-29T04:36:43;5.00;91.50
33988;DHT22;37428;53.580;-1.666;2023-01-29T04:39:48;5.00;91.60
33988;DHT22;37428;53.580;-1.666;2023-01-29T04:43:00;5.00;91.90
33988;DHT22;37428;53.580;-1.666;2023-01-29T04:46:17;5.00;91.40
33988;DHT22;37428;53.580;-1.666;2023-01-29T04:49:28;5.00;91.80
33988;DHT22;37428;53.580;-1.666;2023-01-29T04:52:41;5.00;91.30
33988;DHT22;37428;53.580;-1.666;2023-01-29T04:55:48;5.00;91.30
33988;DHT22;37428;53.580;-1.666;2023-01-29T04:58:56;5.00;91.00
33988;DHT22;37428;53.580;-1.666;2023-01-29T05:02:00;4.90;91.20
33988;DHT22;37428;53.580;-1.666;2023-01-29T05:05:03;4.90;91.30
33988;DHT22;37428;53.580;-1.666;2023-01-29T05:08:08;4.80;91.40
33988;DHT22;37428;53.580;-1.666;2023-01-29T05:11:12;4.70;91.50
33988;DHT22;37428;53.580;-1.666;2023-01-29T05:14:19;4.70;91.60
33988;DHT22;37428;53.580;-1.666;2023-01-29T05:17:21;4.70;91.60
33988;DHT22;37428;53.580;-1.666;2023-01-29T05:20:24;4.70;91.30
33988;DHT22;37428;53.580;-1.666;2023-01-29T05:23:27;4.70;91.30
33988;DHT22;37428;53.580;-1.666;2023-01-29T05:26:30;4.70;90.80
33988;DHT22;37428;53.580;-1.666;2023-01-29T05:29:50;4.60;91.00
33988;DHT22;37428;53.580;-1.666;2023-01-29T05:32:52;4.60;91.00
33988;DHT22;37428;53.580;-1.666;2023-01-29T05:35:55;4.60;90.80
33988;DHT22;37428;53.580;-1.666;2023-01-29T05:38:58;4.50;90.70
33988;DHT22;37428;53.580;-1.666;2023-01-29T05:42:01;4.50;90.50
33988;DHT22;37428;53.580;-1.666;2023-01-29T05:45:04;4.40;90.30
33988;DHT22;37428;53.580;-1.666;2023-01-29T05:48:08;4.40;90.40
33988;DHT22;37428;53.580;-1.666;2023-01-29T05:51:10;4.40;90.10
33988;DHT22;37428;53.580;-1.666;2023-01-29T05:54:15;4.40;90.30
33988;DHT22;37428;53.580;-1.666;2023-01-29T05:57:17;4.40;90.60
33988;DHT22;37428;53.580;-1.666;2023-01-29T06:00:19;4.40;90.80
33988;DHT22;37428;53.580;-1.666;2023-01-29T06:03:21;4.40;90.90
33988;DHT22;37428;53.580;-1.666;2023-01-29T06:06:23;4.40;91.10
33988;DHT22;37428;53.580;-1.666;2023-01-29T06:09:27;4.50;91.10
33988;DHT22;37428;53.580;-1.666;2023-01-29T06:12:29;4.50;91.20
33988;DHT22;37428;53.580;-1.666;2023-01-29T06:15:33;4.50;91.10
33988;DHT22;37428;53.580;-1.666;2023-01-29T06:18:36;4.50;91.30
33988;DHT22;37428;53.580;-1.666;2023-01-29T06:21:40;4.60;91.60
33988;DHT22;37428;53.580;-1.666;2023-01-29T06:24:43;4.60;91.20
33988;DHT22;37428;53.580;-1.666;2023-01-29T06:27:45;4.70;91.00
33988;DHT22;37428;53.580;-1.666;2023-01-29T06:30:50;4.70;90.80
33988;DHT22;37428;53.580;-1.666;2023-01-29T06:33:54;4.70;90.90
33988;DHT22;37428;53.580;-1.666;2023-01-29T06:36:57;4.70;90.30
33988;DHT22;37428;53.580;-1.666;2023-01-29T06:40:00;4.70;90.20
33988;DHT22;37428;53.580;-1.666;2023-01-29T06:43:02;4.70;90.00
33988;DHT22;37428;53.580;-1.666;2023-01-29T06:46:06;4.70;90.00
33988;DHT22;37428;53.580;-1.666;2023-01-29T06:49:08;4.60;89.40
33988;DHT22;37428;53.580;-1.666;2023-01-29T06:52:11;4.60;89.20
33988;DHT22;37428;53.580;-1.666;2023-01-29T06:55:14;4.60;88.50
33988;DHT22;37428;53.580;-1.666;2023-01-29T06:58:17;4.60;88.40
33988;DHT22;37428;53.580;-1.666;2023-01-29T07:01:20;4.50;88.40
33988;DHT22;37428;53.580;-1.666;2023-01-29T07:04:23;4.40;88.40
33988;DHT22;37428;53.580;-1.666;2023-01-29T07:07:25;4.40;88.60
33988;DHT22;37428;53.580;-1.666;2023-01-29T07:10:28;4.30;88.80
33988;DHT22;37428;53.580;-1.666;2023-01-29T07:13:31;4.30;89.20
33988;DHT22;37428;53.580;-1.666;2023-01-29T07:16:33;4.30;89.10
33988;DHT22;37428;53.580;-1.666;2023-01-29T07:19:35;4.20;89.40
33988;DHT22;37428;53.580;-1.666;2023-01-29T07:22:37;4.20;89.50
33988;DHT22;37428;53.580;-1.666;2023-01-29T07:25:41;4.20;89.20
33988;DHT22;37428;53.580;-1.666;2023-01-29T07:28:43;4.20;88.80
33988;DHT22;37428;53.580;-1.666;2023-01-29T07:31:45;4.20;88.40
33988;DHT22;37428;53.580;-1.666;2023-01-29T07:34:48;4.20;88.10
33988;DHT22;37428;53.580;-1.666;2023-01-29T07:37:50;4.20;88.00
33988;DHT22;37428;53.580;-1.666;2023-01-29T07:40:54;4.20;87.50
33988;DHT22;37428;53.580;-1.666;2023-01-29T07:43:56;4.30;87.00
33988;DHT22;37428;53.580;-1.666;2023-01-29T07:46:59;4.30;86.70
33988;DHT22;37428;53.580;-1.666;2023-01-29T07:50:03;4.30;86.10
33988;DHT22;37428;53.580;-1.666;2023-01-29T07:53:06;4.30;86.10
33988;DHT22;37428;53.580;-1.666;2023-01-29T07:56:12;4.30;86.10
33988;DHT22;37428;53.580;-1.666;2023-01-29T07:59:14;4.30;85.90
33988;DHT22;37428;53.580;-1.666;2023-01-29T08:02:17;4.20;86.40
33988;DHT22;37428;53.580;-1.666;2023-01-29T08:05:19;4.20;86.40
33988;DHT22;37428;53.580;-1.666;2023-01-29T08:08:21;4.10;86.80
33988;DHT22;37428;53.580;-1.666;2023-01-29T08:11:24;4.10;86.90
33988;DHT22;37428;53.580;-1.666;2023-01-29T08:14:27;4.10;87.30
33988;DHT22;37428;53.580;-1.666;2023-01-29T08:17:29;4.10;87.60
33988;DHT22;37428;53.580;-1.666;2023-01-29T08:20:30;4.10;87.60
33988;DHT22;37428;53.580;-1.666;2023-01-29T08:23:32;4.10;87.00
33988;DHT22;37428;53.580;-1.666;2023-01-29T08:26:36;4.10;86.90
33988;DHT22;37428;53.580;-1.666;2023-01-29T08:29:38;4.10;86.80
33988;DHT22;37428;53.580;-1.666;2023-01-29T08:32:41;4.10;87.10
33988;DHT22;37428;53.580;-1.666;2023-01-29T08:35:43;4.10;87.20
33988;DHT22;37428;53.580;-1.666;2023-01-29T08:38:49;4.10;87.40
33988;DHT22;37428;53.580;-1.666;2023-01-29T08:41:52;4.20;87.10
33988;DHT22;37428;53.580;-1.666;2023-01-29T08:44:55;4.20;87.30
33988;DHT22;37428;53.580;-1.666;2023-01-29T08:47:58;4.20;86.80
33988;DHT22;37428;53.580;-1.666;2023-01-29T08:51:01;4.30;86.90
33988;DHT22;37428;53.580;-1.666;2023-01-29T08:54:04;4.30;86.50
33988;DHT22;37428;53.580;-1.666;2023-01-29T08:57:09;4.30;86.10
33988;DHT22;37428;53.580;-1.666;2023-01-29T09:00:12;4.30;86.10
33988;DHT22;37428;53.580;-1.666;2023-01-29T09:03:15;4.40;85.70
33988;DHT22;37428;53.580;-1.666;2023-01-29T09:06:17;4.50;85.40
33988;DHT22;37428;53.580;-1.666;2023-01-29T09:09:19;4.50;85.20
33988;DHT22;37428;53.580;-1.666;2023-01-29T09:12:23;4.60;84.40
33988;DHT22;37428;53.580;-1.666;2023-01-29T09:15:26;4.60;84.30
33988;DHT22;37428;53.580;-1.666;2023-01-29T09:18:29;4.70;84.30
33988;DHT22;37428;53.580;-1.666;2023-01-29T09:21:31;4.80;84.20
33988;DHT22;37428;53.580;-1.666;2023-01-29T09:24:33;4.90;83.80
33988;DHT22;37428;53.580;-1.666;2023-01-29T09:27:37;4.90;84.40
33988;DHT22;37428;53.580;-1.666;2023-01-29T09:30:39;5.00;85.20
33988;DHT22;37428;53.580;-1.666;2023-01-29T09:33:41;4.90;85.40
33988;DHT22;37428;53.580;-1.666;2023-01-29T09:36:43;4.90;86.00
33988;DHT22;37428;53.580;-1.666;2023-01-29T09:39:52;4.90;86.10
33988;DHT22;37428;53.580;-1.666;2023-01-29T09:43:00;5.00;86.30
33988;DHT22;37428;53.580;-1.666;2023-01-29T09:46:14;5.00;85.90
33988;DHT22;37428;53.580;-1.666;2023-01-29T09:49:25;5.10;86.00
33988;DHT22;37428;53.580;-1.666;2023-01-29T09:52:32;5.20;85.60
33988;DHT22;37428;53.580;-1.666;2023-01-29T09:55:40;5.20;84.90
33988;DHT22;37428;53.580;-1.666;2023-01-29T09:58:44;5.30;84.40
33988;DHT22;37428;53.580;-1.666;2023-01-29T10:01:54;5.40;84.30
33988;DHT22;37428;53.580;-1.666;2023-01-29T10:05:15;5.60;83.50
33988;DHT22;37428;53.580;-1.666;2023-01-29T10:08:51;5.60;83.60
33988;DHT22;37428;53.580;-1.666;2023-01-29T10:12:10;5.60;83.60
33988;DHT22;37428;53.580;-1.666;2023-01-29T10:15:24;5.40;84.20
33988;DHT22;37428;53.580;-1.666;2023-01-29T10:18:52;5.40;84.90
33988;DHT22;37428;53.580;-1.666;2023-01-29T10:22:23;5.40;84.70
33988;DHT22;37428;53.580;-1.666;2023-01-29T10:25:34;5.40;84.90
33988;DHT22;37428;53.580;-1.666;2023-01-29T10:28:41;5.40;85.70
33988;DHT22;37428;53.580;-1.666;2023-01-29T10:31:51;5.50;84.60
33988;DHT22;37428;53.580;-1.666;2023-01-29T10:34:58;5.50;84.40
33988;DHT22;37428;53.580;-1.666;2023-01-29T10:38:17;5.40;84.40
33988;DHT22;37428;53.580;-1.666;2023-01-29T10:41:36;5.40;84.40
33988;DHT22;37428;53.580;-1.666;2023-01-29T10:44:50;5.50;84.70
33988;DHT22;37428;53.580;-1.666;2023-01-29T10:51:42;5.30;84.20
33988;DHT22;37428;53.580;-1.666;2023-01-29T10:55:01;5.20;84.50
33988;DHT22;37428;53.580;-1.666;2023-01-29T10:58:11;5.20;84.90
33988;DHT22;37428;53.580;-1.666;2023-01-29T11:01:18;5.20;85.00
33988;DHT22;37428;53.580;-1.666;2023-01-29T11:04:21;5.20;84.40
33988;DHT22;37428;53.580;-1.666;2023-01-29T11:07:24;5.20;84.40
33988;DHT22;37428;53.580;-1.666;2023-01-29T11:10:28;5.40;83.60
33988;DHT22;37428;53.580;-1.666;2023-01-29T11:13:37;5.70;82.90
33988;DHT22;37428;53.580;-1.666;2023-01-29T11:16:42;5.90;82.50
33988;DHT22;37428;53.580;-1.666;2023-01-29T11:19:48;6.00;82.20
33988;DHT22;37428;53.580;-1.666;2023-01-29T11:22:53;6.00;81.00
33988;DHT22;37428;53.580;-1.666;2023-01-29T11:25:57;5.80;81.50
33988;DHT22;37428;53.580;-1.666;2023-01-29T11:28:59;5.80;82.00
33988;DHT22;37428;53.580;-1.666;2023-01-29T11:32:04;5.80;82.20
33988;DHT22;37428;53.580;-1.666;2023-01-29T11:35:20;5.80;82.60
33988;DHT22;37428;53.580;-1.666;2023-01-29T11:38:23;5.80;82.60
33988;DHT22;37428;53.580;-1.666;2023-01-29T11:41:26;5.80;83.00
33988;DHT22;37428;53.580;-1.666;2023-01-29T11:44:31;6.00;83.20
33988;DHT22;37428;53.580;-1.666;2023-01-29T11:47:33;6.00;83.40
33988;DHT22;37428;53.580;-1.666;2023-01-29T11:50:37;6.10;83.20
33988;DHT22;37428;53.580;-1.666;2023-01-29T11:53:41;6.20;83.00
33988;DHT22;37428;53.580;-1.666;2023-01-29T11:56:47;6.10;82.90
33988;DHT22;37428;53.580;-1.666;2023-01-29T11:59:52;6.20;82.40
33988;DHT22;37428;53.580;-1.666;2023-01-29T12:02:56;6.40;82.70
33988;DHT22;37428;53.580;-1.666;2023-01-29T12:06:05;6.50;81.40
33988;DHT22;37428;53.580;-1.666;2023-01-29T12:09:13;6.60;81.20
33988;DHT22;37428;53.580;-1.666;2023-01-29T12:12:25;6.60;81.40
33988;DHT22;37428;53.580;-1.666;2023-01-29T12:15:28;6.70;81.00
33988;DHT22;37428;53.580;-1.666;2023-01-29T12:18:35;6.80;81.10
33988;DHT22;37428;53.580;-1.666;2023-01-29T12:21:45;6.70;81.10
33988;DHT22;37428;53.580;-1.666;2023-01-29T12:24:53;6.70;82.00
33988;DHT22;37428;53.580;-1.666;2023-01-29T12:27:59;6.80;81.30
33988;DHT22;37428;53.580;-1.666;2023-01-29T12:31:18;7.00;81.90
33988;DHT22;37428;53.580;-1.666;2023-01-29T12:34:35;7.20;81.30
33988;DHT22;37428;53.580;-1.666;2023-01-29T12:37:52;7.20;81.20
33988;DHT22;37428;53.580;-1.666;2023-01-29T12:40:59;7.30;81.20
33988;DHT22;37428;53.580;-1.666;2023-01-29T12:44:12;7.20;81.00
33988;DHT22;37428;53.580;-1.666;2023-01-29T12:47:20;7.20;81.50
33988;DHT22;37428;53.580;-1.666;2023-01-29T12:50:25;7.00;81.60
33988;DHT22;37428;53.580;-1.666;2023-01-29T12:53:32;6.90;82.30
33988;DHT22;37428;53.580;-1.666;2023-01-29T12:56:38;6.70;82.30
33988;DHT22;37428;53.580;-1.666;2023-01-29T12:59:46;6.70;83.30
33988;DHT22;37428;53.580;-1.666;2023-01-29T13:02:55;6.70;83.80
33988;DHT22;37428;53.580;-1.666;2023-01-29T13:06:02;6.70;84.20
33988;DHT22;37428;53.580;-1.666;2023-01-29T13:09:12;6.60;84.00
33988;DHT22;37428;53.580;-1.666;2023-01-29T13:12:16;6.50;84.60
33988;DHT22;37428;53.580;-1.666;2023-01-29T13:15:22;6.50;84.80
33988;DHT22;37428;53.580;-1.666;2023-01-29T13:18:40;6.70;84.50
33988;DHT22;37428;53.580;-1.666;2023-01-29T13:21:45;6.90;84.60
33988;DHT22;37428;53.580;-1.666;2023-01-29T13:24:49;7.00;84.30
33988;DHT22;37428;53.580;-1.666;2023-01-29T13:27:51;7.10;84.70
33988;DHT22;37428;53.580;-1.666;2023-01-29T13:31:13;7.00;84.00
33988;DHT22;37428;53.580;-1.666;2023-01-29T13:34:21;6.90;84.90
33988;DHT22;37428;53.580;-1.666;2023-01-29T13:37:30;6.80;85.70
33988;DHT22;37428;53.580;-1.666;2023-01-29T13:40:35;6.70;86.70
33988;DHT22;37428;53.580;-1.666;2023-01-29T13:43:39;6.50;86.80
33988;DHT22;37428;53.580;-1.666;2023-01-29T13:46:48;6.50;88.20
33988;DHT22;37428;53.580;-1.666;2023-01-29T13:49:56;6.40;87.80
33988;DHT22;37428;53.580;-1.666;2023-01-29T13:52:59;6.40;87.30
33988;DHT22;37428;53.580;-1.666;2023-01-29T13:56:28;6.30;87.60
33988;DHT22;37428;53.580;-1.666;2023-01-29T13:59:51;6.20;88.20
33988;DHT22;37428;53.580;-1.666;2023-01-29T14:06:42;6.00;89.40
33988;DHT22;37428;53.580;-1.666;2023-01-29T14:13:35;6.00;90.00
33988;DHT22;37428;53.580;-1.666;2023-01-29T14:16:37;6.00;90.00
33988;DHT22;37428;53.580;-1.666;2023-01-29T14:19:46;6.00;89.90
33988;DHT22;37428;53.580;-1.666;2023-01-29T14:22:54;6.00;90.20
33988;DHT22;37428;53.580;-1.666;2023-01-29T14:26:00;6.00;89.60
33988;DHT22;37428;53.580;-1.666;2023-01-29T14:29:14;6.00;89.80
33988;DHT22;37428;53.580;-1.666;2023-01-29T14:32:20;6.00;90.00
33988;DHT22;37428;53.580;-1.666;2023-01-29T14:35:26;5.90;90.50
33988;DHT22;37428;53.580;-1.666;2023-01-29T14:38:31;5.90;90.40
33988;DHT22;37428;53.580;-1.666;2023-01-29T14:41:35;5.90;90.60
33988;DHT22;37428;53.580;-1.666;2023-01-29T14:45:20;5.90;90.70
33988;DHT22;37428;53.580;-1.666;2023-01-29T14:48:36;5.80;91.10
33988;DHT22;37428;53.580;-1.666;2023-01-29T14:51:42;5.90;91.40
33988;DHT22;37428;53.580;-1.666;2023-01-29T14:54:47;5.90;91.60
33988;DHT22;37428;53.580;-1.666;2023-01-29T14:57:50;5.90;91.70
33988;DHT22;37428;53.580;-1.666;2023-01-29T15:00:56;5.90;91.90
33988;DHT22;37428;53.580;-1.666;2023-01-29T15:04:02;5.90;92.00
33988;DHT22;37428;53.580;-1.666;2023-01-29T15:07:14;5.90;92.30
33988;DHT22;37428;53.580;-1.666;2023-01-29T15:10:20;6.00;92.70
33988;DHT22;37428;53.580;-1.666;2023-01-29T15:13:31;6.00;92.30
33988;DHT22;37428;53.580;-1.666;2023-01-29T15:16:43;6.00;92.70
33988;DHT22;37428;53.580;-1.666;2023-01-29T15:19:47;6.00;92.90
33988;DHT22;37428;53.580;-1.666;2023-01-29T15:22:50;6.00;93.00
33988;DHT22;37428;53.580;-1.666;2023-01-29T15:25:54;6.00;93.10
33988;DHT22;37428;53.580;-1.666;2023-01-29T15:28:57;6.00;93.10
33988;DHT22;37428;53.580;-1.666;2023-01-29T15:32:01;6.10;92.90
33988;DHT22;37428;53.580;-1.666;2023-01-29T15:35:08;6.10;92.90
33988;DHT22;37428;53.580;-1.666;2023-01-29T15:38:15;6.00;93.10
33988;DHT22;37428;53.580;-1.666;2023-01-29T15:41:19;6.10;93.50
33988;DHT22;37428;53.580;-1.666;2023-01-29T15:44:23;6.10;93.40
33988;DHT22;37428;53.580;-1.666;2023-01-29T15:47:31;6.10;93.20
33988;DHT22;37428;53.580;-1.666;2023-01-29T15:50:36;6.10;93.00
33988;DHT22;37428;53.580;-1.666;2023-01-29T15:53:42;6.10;92.90
33988;DHT22;37428;53.580;-1.666;2023-01-29T15:56:47;6.10;93.00
33988;DHT22;37428;53.580;-1.666;2023-01-29T15:59:52;6.10;92.90
33988;DHT22;37428;53.580;-1.666;2023-01-29T16:02:57;6.10;92.90
33988;DHT22;37428;53.580;-1.666;2023-01-29T16:06:00;6.10;92.80
33988;DHT22;37428;53.580;-1.666;2023-01-29T16:09:03;6.20;92.90
33988;DHT22;37428;53.580;-1.666;2023-01-29T16:12:06;6.20;92.70
33988;DHT22;37428;53.580;-1.666;2023-01-29T16:15:16;6.20;92.50
33988;DHT22;37428;53.580;-1.666;2023-01-29T16:18:24;6.20;92.30
33988;DHT22;37428;53.580;-1.666;2023-01-29T16:21:32;6.30;92.80
33988;DHT22;37428;53.580;-1.666;2023-01-29T16:24:37;6.20;92.30
33988;DHT22;37428;53.580;-1.666;2023-01-29T16:27:40;6.20;92.40
33988;DHT22;37428;53.580;-1.666;2023-01-29T16:30:44;6.20;92.60
33988;DHT22;37428;53.580;-1.666;2023-01-29T16:33:48;6.20;93.20
33988;DHT22;37428;53.580;-1.666;2023-01-29T16:36:50;6.20;93.30
33988;DHT22;37428;53.580;-1.666;2023-01-29T16:39:53;6.20;93.40
33988;DHT22;37428;53.580;-1.666;2023-01-29T16:46:31;6.10;93.50
33988;DHT22;37428;53.580;-1.666;2023-01-29T16:49:47;6.20;93.50
33988;DHT22;37428;53.580;-1.666;2023-01-29T16:52:59;6.20;93.30
33988;DHT22;37428;53.580;-1.666;2023-01-29T16:56:04;6.20;93.70
33988;DHT22;37428;53.580;-1.666;2023-01-29T16:59:15;6.20;93.50
33988;DHT22;37428;53.580;-1.666;2023-01-29T17:02:22;6.20;93.70
33988;DHT22;37428;53.580;-1.666;2023-01-29T17:05:29;6.30;93.50
33988;DHT22;37428;53.580;-1.666;2023-01-29T17:08:33;6.20;93.50
33988;DHT22;37428;53.580;-1.666;2023-01-29T17:11:36;6.20;93.60
33988;DHT22;37428;53.580;-1.666;2023-01-29T17:14:39;6.30;93.40
33988;DHT22;37428;53.580;-1.666;2023-01-29T17:17:43;6.20;93.40
33988;DHT22;37428;53.580;-1.666;2023-01-29T17:20:50;6.20;93.30
33988;DHT22;37428;53.580;-1.666;2023-01-29T17:23:53;6.30;93.10
33988;DHT22;37428;53.580;-1.666;2023-01-29T17:26:55;6.30;92.70
33988;DHT22;37428;53.580;-1.666;2023-01-29T17:29:57;6.40;92.40
33988;DHT22;37428;53.580;-1.666;2023-01-29T17:33:00;6.40;92.30
33988;DHT22;37428;53.580;-1.666;2023-01-29T17:36:07;6.40;91.90
33988;DHT22;37428;53.580;-1.666;2023-01-29T17:39:17;6.40;91.60
33988;DHT22;37428;53.580;-1.666;2023-01-29T17:42:20;6.40;91.60
33988;DHT22;37428;53.580;-1.666;2023-01-29T17:45:22;6.50;91.50
33988;DHT22;37428;53.580;-1.666;2023-01-29T17:48:25;6.50;91.50
33988;DHT22;37428;53.580;-1.666;2023-01-29T17:51:36;6.50;91.10
33988;DHT22;37428;53.580;-1.666;2023-01-29T17:54:38;6.60;91.00
33988;DHT22;37428;53.580;-1.666;2023-01-29T17:57:40;6.60;90.60
33988;DHT22;37428;53.580;-1.666;2023-01-29T18:00:43;6.60;90.60
33988;DHT22;37428;53.580;-1.666;2023-01-29T18:03:45;6.60;90.80
33988;DHT22;37428;53.580;-1.666;2023-01-29T18:06:49;6.60;90.50
33988;DHT22;37428;53.580;-1.666;2023-01-29T18:09:52;6.70;90.10
33988;DHT22;37428;53.580;-1.666;2023-01-29T18:12:54;6.70;90.20
33988;DHT22;37428;53.580;-1.666;2023-01-29T18:15:56;6.70;90.20
33988;DHT22;37428;53.580;-1.666;2023-01-29T18:18:58;6.70;90.10
33988;DHT22;37428;53.580;-1.666;2023-01-29T18:22:02;6.70;90.20
33988;DHT22;37428;53.580;-1.666;2023-01-29T18:25:04;6.70;90.20
33988;DHT22;37428;53.580;-1.666;2023-01-29T18:28:10;6.70;90.30
33988;DHT22;37428;53.580;-1.666;2023-01-29T18:31:13;6.70;90.20
33988;DHT22;37428;53.580;-1.666;2023-01-29T18:34:15;6.70;90.10
33988;DHT22;37428;53.580;-1.666;2023-01-29T18:37:19;6.60;90.20
33988;DHT22;37428;53.580;-1.666;2023-01-29T18:40:21;6.60;90.10
33988;DHT22;37428;53.580;-1.666;2023-01-29T18:43:23;6.60;90.10
33988;DHT22;37428;53.580;-1.666;2023-01-29T18:46:25;6.60;89.90
33988;DHT22;37428;53.580;-1.666;2023-01-29T18:49:30;6.60;90.00
33988;DHT22;37428;53.580;-1.666;2023-01-29T18:52:33;6.50;90.30
33988;DHT22;37428;53.580;-1.666;2023-01-29T18:55:36;6.50;90.20
33988;DHT22;37428;53.580;-1.666;2023-01-29T18:58:38;6.50;90.30
33988;DHT22;37428;53.580;-1.666;2023-01-29T19:01:40;6.50;90.10
33988;DHT22;37428;53.580;-1.666;2023-01-29T19:04:42;6.50;90.10
33988;DHT22;37428;53.580;-1.666;2023-01-29T19:07:47;6.50;90.00
33988;DHT22;37428;53.580;-1.666;2023-01-29T19:10:49;6.50;89.80
33988;DHT22;37428;53.580;-1.666;2023-01-29T19:13:51;6.40;90.00
33988;DHT22;37428;53.580;-1.666;2023-01-29T19:16:55;6.40;90.00
33988;DHT22;37428;53.580;-1.666;2023-01-29T19:19:57;6.50;90.20
33988;DHT22;37428;53.580;-1.666;2023-01-29T19:23:03;6.40;90.20
33988;DHT22;37428;53.580;-1.666;2023-01-29T19:26:05;6.50;90.00
33988;DHT22;37428;53.580;-1.666;2023-01-29T19:29:07;6.50;89.80
33988;DHT22;37428;53.580;-1.666;2023-01-29T19:32:10;6.50;89.80
33988;DHT22;37428;53.580;-1.666;2023-01-29T19:35:12;6.60;89.50
33988;DHT22;37428;53.580;-1.666;2023-01-29T19:38:16;6.60;89.50
33988;DHT22;37428;53.580;-1.666;2023-01-29T19:41:20;6.60;89.80
33988;DHT22;37428;53.580;-1.666;2023-01-29T19:44:23;6.60;89.60
33988;DHT22;37428;53.580;-1.666;2023-01-29T19:47:27;6.60;89.80
33988;DHT22;37428;53.580;-1.666;2023-01-29T19:50:29;6.60;90.10